Time;durP1;ratioP1;P1;durP2;ratioP2;P2;SDS_P1;SDS_P2;PMS_P1;PMS_P2;Temp;Humidity;BMP_temperature;BMP_pressure;BME280_temperature;BME280_humidity;BME280_pressure;Samples;Min_cycle;Max_cycle;Signal;HPM_P1;HPM_P2
2022/09/23 00:02:12;;;;;;;5.78;2.47;;;;;;;19.71;46.44;101714.72;5013076;28;20060;-75
2022/09/23 00:04:37;;;;;;;3.92;2.13;;;;;;;19.69;46.39;101710.50;5011357;28;20029;-74
2022/09/23 00:07:02;;;;;;;5.50;2.47;;;;;;;19.70;46.55;101715.66;5012099;28;20026;-73
2022/09/23 00:09:28;;;;;;;5.18;2.75;;;;;;;19.70;46.22;101713.03;5011893;28;20531;-75
2022/09/23 00:11:54;;;;;;;4.57;2.10;;;;;;;19.60;46.25;101693.53;5011863;28;20041;-73
2022/09/23 00:14:20;;;;;;;4.63;2.38;;;;;;;19.58;46.35;101696.28;5012771;28;20079;-74
2022/09/23 00:16:46;;;;;;;4.50;2.50;;;;;;;19.67;46.43;101707.13;5018919;28;20080;-76
2022/09/23 00:19:11;;;;;;;4.75;2.20;;;;;;;19.60;46.35;101700.59;5018009;28;20057;-73
2022/09/23 00:21:37;;;;;;;5.53;2.20;;;;;;;19.64;46.15;101708.19;5012340;28;20040;-73
2022/09/23 00:24:02;;;;;;;4.75;2.20;;;;;;;19.60;46.42;101690.00;5012031;28;20112;-72
2022/09/23 00:26:28;;;;;;;5.10;2.30;;;;;;;19.65;46.01;101701.13;5019076;28;20048;-72
2022/09/23 00:28:53;;;;;;;4.25;2.25;;;;;;;19.63;46.23;101692.44;5010626;28;20067;-72
2022/09/23 00:31:22;;;;;;;5.63;2.50;;;;;;;19.59;46.20;101689.19;5012297;28;20034;-71
2022/09/23 00:33:51;;;;;;;4.25;2.00;;;;;;;19.53;46.17;101684.34;5012011;28;20037;-73
2022/09/23 00:36:17;;;;;;;4.70;2.50;;;;;;;19.58;46.15;101687.47;5011089;28;20056;-73
2022/09/23 00:38:44;;;;;;;4.35;2.20;;;;;;;19.58;46.35;101682.19;5012319;28;20385;-75
2022/09/23 00:41:09;;;;;;;4.47;2.17;;;;;;;19.51;46.15;101675.69;5012242;28;20040;-75
2022/09/23 00:43:39;;;;;;;5.00;2.38;;;;;;;19.53;46.15;101677.25;5012190;28;20366;-75
2022/09/23 00:46:08;;;;;;;6.75;2.42;;;;;;;19.48;46.11;101675.91;5011633;28;20034;-74
2022/09/23 00:48:35;;;;;;;4.85;2.40;;;;;;;19.48;45.90;101668.81;5011677;28;20040;-73
2022/09/23 00:51:01;;;;;;;5.40;2.47;;;;;;;19.54;46.04;101686.03;5012107;28;20530;-74
2022/09/23 00:53:27;;;;;;;5.90;2.92;;;;;;;19.53;46.08;101682.53;5011556;28;20025;-75
2022/09/23 00:56:01;;;;;;;5.90;2.30;;;;;;;19.55;46.07;101693.00;5011046;28;20111;-73
2022/09/23 00:58:31;;;;;;;5.00;2.55;;;;;;;19.50;46.08;101676.63;5008942;28;20025;-73
2022/09/23 01:01:00;;;;;;;5.68;2.53;;;;;;;19.51;45.85;101683.63;5010470;28;20026;-73
2022/09/23 01:03:26;;;;;;;6.43;2.53;;;;;;;19.50;45.92;101685.44;5009908;28;20025;-73
2022/09/23 01:05:52;;;;;;;5.53;2.53;;;;;;;19.46;45.88;101681.31;5011475;28;20025;-76
2022/09/23 01:08:18;;;;;;;6.22;2.53;;;;;;;19.51;45.96;101683.63;5010750;28;21101;-73
2022/09/23 01:11:01;;;;;;;4.68;2.83;;;;;;;19.46;45.94;101677.84;5011327;28;20115;-73
2022/09/23 01:13:34;;;;;;;4.40;2.50;;;;;;;19.47;46.17;101680.38;5010564;28;20033;-74
2022/09/23 01:16:19;;;;;;;5.75;2.85;;;;;;;19.42;46.18;101671.91;5011508;28;20152;-73
2022/09/23 01:19:04;;;;;;;5.30;2.78;;;;;;;19.43;45.87;101670.97;5011006;28;20034;-75
2022/09/23 01:21:32;;;;;;;4.60;2.70;;;;;;;19.38;45.90;101671.31;5011811;28;20034;-72
2022/09/23 01:24:32;;;;;;;5.15;3.05;;;;;;;19.41;45.78;101667.59;5011740;28;20029;-72
2022/09/23 01:27:07;;;;;;;5.07;3.00;;;;;;;19.36;45.79;101662.66;5009479;28;20378;-73
2022/09/23 01:29:42;;;;;;;4.70;2.50;;;;;;;19.40;45.92;101668.56;5011289;28;20046;-74
2022/09/23 01:32:24;;;;;;;6.38;2.90;;;;;;;19.36;45.77;101670.59;5011532;28;20030;-73
2022/09/23 01:35:09;;;;;;;5.15;2.90;;;;;;;19.37;45.83;101666.97;5017508;28;20077;-72
2022/09/23 01:38:10;;;;;;;4.78;2.55;;;;;;;19.40;45.89;101665.91;5011078;28;20036;-73
2022/09/23 01:40:41;;;;;;;4.88;2.60;;;;;;;19.39;45.80;101669.50;4963700;28;20039;-73
2022/09/23 01:43:29;;;;;;;4.72;2.60;;;;;;;19.38;45.92;101671.31;5007883;28;20045;-74
2022/09/23 01:45:58;;;;;;;5.47;2.60;;;;;;;19.25;45.80;101648.53;4995727;28;20064;-73
2022/09/23 01:48:34;;;;;;;5.32;2.80;;;;;;;19.34;45.83;101663.72;5018000;28;20034;-74
2022/09/23 01:51:18;;;;;;;5.80;2.58;;;;;;;19.36;45.78;101664.47;5011372;28;20541;-73
2022/09/23 01:53:56;;;;;;;4.47;2.50;;;;;;;19.36;45.67;101661.81;5011254;28;20030;-73
2022/09/23 01:56:26;;;;;;;6.35;2.97;;;;;;;19.34;45.61;101669.88;5011330;28;20038;-74
2022/09/23 01:59:20;;;;;;;4.57;2.70;;;;;;;19.32;45.87;101660.34;5011121;28;20466;-74
2022/09/23 02:01:57;;;;;;;5.40;2.97;;;;;;;19.30;45.93;101668.38;5011302;28;20033;-73
2022/09/23 02:04:38;;;;;;;4.43;2.58;;;;;;;19.27;45.74;101662.50;5010922;28;20109;-76
2022/09/23 02:07:26;;;;;;;5.82;3.13;;;;;;;19.24;45.98;101657.44;5013988;28;20816;-75
2022/09/23 02:10:00;;;;;;;4.85;2.65;;;;;;;19.23;45.81;101653.91;5014759;28;20034;-72
2022/09/23 02:12:29;;;;;;;5.43;3.00;;;;;;;19.23;45.79;101647.81;5021934;28;20084;-72
2022/09/23 02:15:03;;;;;;;5.20;2.92;;;;;;;19.18;45.78;101638.44;5015521;28;20065;-73
2022/09/23 02:18:01;;;;;;;5.10;3.05;;;;;;;19.27;45.88;101654.56;5015416;28;20041;-75
2022/09/23 02:20:29;;;;;;;5.00;2.80;;;;;;;19.24;45.98;101652.16;5004633;28;20064;-76
2022/09/23 02:23:05;;;;;;;4.90;2.60;;;;;;;19.18;45.83;101640.22;5020576;28;20124;-75
2022/09/23 02:25:38;;;;;;;5.35;3.10;;;;;;;19.19;45.69;101633.97;5014767;28;20029;-73
2022/09/23 02:28:11;;;;;;;5.43;3.08;;;;;;;19.18;45.70;101635.78;5014888;28;20135;-72
2022/09/23 02:30:49;;;;;;;5.63;2.90;;;;;;;19.16;45.67;101626.28;5015289;28;20071;-73
2022/09/23 02:33:35;;;;;;;5.28;2.70;;;;;;;19.13;45.75;101623.84;5021785;28;20029;-72
2022/09/23 02:36:11;;;;;;;5.63;2.63;;;;;;;19.18;45.63;101630.50;5014803;28;20038;-74
2022/09/23 02:38:51;;;;;;;6.03;3.05;;;;;;;19.20;45.86;101630.34;5013085;28;20029;-73
2022/09/23 02:41:27;;;;;;;5.03;2.83;;;;;;;19.10;45.75;101603.78;5015551;28;20038;-74
2022/09/23 02:43:58;;;;;;;5.00;3.25;;;;;;;19.14;45.84;101614.97;5012627;28;20026;-74
2022/09/23 02:46:23;;;;;;;4.57;2.78;;;;;;;19.14;45.61;101612.34;5014243;28;20033;-73
2022/09/23 02:48:59;;;;;;;5.03;2.90;;;;;;;19.12;45.67;101604.53;5014059;28;20037;-74
2022/09/23 02:51:24;;;;;;;4.70;2.70;;;;;;;19.14;45.79;101612.34;5014040;28;20034;-72
2022/09/23 02:53:52;;;;;;;5.35;3.00;;;;;;;19.03;45.76;101595.47;5014149;28;20030;-74
2022/09/23 02:56:19;;;;;;;4.50;2.80;;;;;;;19.07;45.84;101596.06;5014460;28;20038;-73
2022/09/23 02:58:47;;;;;;;5.22;2.80;;;;;;;19.13;45.63;101600.06;5014054;28;20026;-72
2022/09/23 03:01:45;;;;;;;5.35;2.83;;;;;;;19.08;45.66;101597.78;5020766;28;20050;-74
2022/09/23 03:04:25;;;;;;;5.63;2.90;;;;;;;19.05;45.79;101592.72;5020338;28;20029;-73
2022/09/23 03:07:07;;;;;;;5.47;3.30;;;;;;;19.06;45.43;101594.41;5013480;28;20029;-73
2022/09/23 03:09:39;;;;;;;6.68;3.10;;;;;;;19.05;45.73;101589.22;5014111;28;20034;-73
2022/09/23 03:12:33;;;;;;;5.53;3.28;;;;;;;19.07;45.73;101589.97;5013982;28;20033;-73
2022/09/23 03:15:16;;;;;;;5.38;3.10;;;;;;;19.13;45.46;101602.72;5013165;28;20036;-73
2022/09/23 03:17:55;;;;;;;5.53;3.33;;;;;;;19.07;45.74;101588.16;5013575;28;20087;-74
2022/09/23 03:20:35;;;;;;;5.22;3.17;;;;;;;19.09;45.65;101588.91;5014403;28;20029;-75
2022/09/23 03:23:05;;;;;;;5.75;3.10;;;;;;;19.03;45.73;101582.25;5013740;28;20481;-75
2022/09/23 03:25:35;;;;;;;5.78;3.40;;;;;;;18.98;45.80;101576.47;5020620;28;20088;-73
2022/09/23 03:28:02;;;;;;;4.93;2.90;;;;;;;19.00;45.36;101581.66;5013659;28;20371;-75
2022/09/23 03:30:30;;;;;;;5.85;3.10;;;;;;;19.01;45.34;101581.53;5013813;28;20521;-74
2022/09/23 03:32:59;;;;;;;5.32;3.08;;;;;;;18.95;45.50;101578.50;5013450;28;20083;-74
2022/09/23 03:35:26;;;;;;;5.32;3.13;;;;;;;19.05;45.48;101586.59;5014062;28;20025;-73
2022/09/23 03:37:59;;;;;;;4.55;2.75;;;;;;;19.05;45.32;101591.88;5013609;28;20080;-74
2022/09/23 03:40:40;;;;;;;4.95;2.70;;;;;;;18.92;45.63;101570.81;5014277;28;20060;-74
2022/09/23 03:43:06;;;;;;;5.20;2.90;;;;;;;19.02;45.43;101596.41;5014036;28;20041;-72
2022/09/23 03:45:33;;;;;;;4.20;2.85;;;;;;;19.00;45.48;101592.22;5013317;28;20060;-73
2022/09/23 03:47:58;;;;;;;4.68;3.15;;;;;;;18.97;45.38;101584.50;5013724;28;20029;-74
2022/09/23 03:50:24;;;;;;;4.32;2.65;;;;;;;18.92;45.52;101576.09;5020173;28;20021;-74
2022/09/23 03:52:50;;;;;;;4.45;2.78;;;;;;;18.92;45.27;101568.16;5020029;28;20037;-74
2022/09/23 03:55:18;;;;;;;5.22;3.05;;;;;;;18.96;45.45;101582.81;5012962;28;20370;-74
2022/09/23 03:57:44;;;;;;;7.05;2.95;;;;;;;18.97;45.49;101579.22;5013462;28;20117;-75
2022/09/23 04:00:11;;;;;;;5.30;3.33;;;;;;;18.96;45.33;101575.75;5013631;28;20112;-74
2022/09/23 04:02:36;;;;;;;4.60;2.83;;;;;;;18.86;45.41;101561.53;5012976;28;20047;-73
2022/09/23 04:05:02;;;;;;;4.78;2.97;;;;;;;18.85;45.30;101562.50;5011381;28;20038;-74
2022/09/23 04:07:27;;;;;;;4.88;2.83;;;;;;;18.97;45.37;101579.22;5013087;28;20051;-74
2022/09/23 04:09:53;;;;;;;5.25;2.80;;;;;;;18.87;45.15;101563.22;5012536;28;20813;-74
2022/09/23 04:12:18;;;;;;;4.65;2.80;;;;;;;18.88;45.35;101564.03;5013246;28;20042;-73
2022/09/23 04:14:44;;;;;;;4.20;2.60;;;;;;;18.94;45.41;101576.81;5013032;28;20041;-76
2022/09/23 04:17:09;;;;;;;5.43;2.75;;;;;;;18.87;45.43;101567.63;5013155;28;20040;-73
2022/09/23 04:19:35;;;;;;;4.95;3.00;;;;;;;18.81;45.27;101561.81;5013077;28;20758;-74
2022/09/23 04:22:00;;;;;;;4.40;2.60;;;;;;;18.84;45.21;101556.34;5013517;28;20029;-74
2022/09/23 04:24:25;;;;;;;5.97;3.45;;;;;;;18.88;45.44;101570.16;5011722;28;20447;-72
2022/09/23 04:26:52;;;;;;;6.18;2.85;;;;;;;18.89;45.12;101579.78;5013223;28;20034;-74
2022/09/23 04:29:18;;;;;;;5.57;2.92;;;;;;;18.88;45.43;101571.97;5012282;28;20050;-75
2022/09/23 04:31:43;;;;;;;5.15;3.03;;;;;;;18.87;45.13;101565.00;5011433;28;20030;-74
2022/09/23 04:34:09;;;;;;;5.32;3.30;;;;;;;18.93;45.28;101567.19;5011077;28;20489;-76
2022/09/23 04:36:34;;;;;;;5.03;2.50;;;;;;;18.92;44.99;101558.44;5012079;28;20029;-74
2022/09/23 04:39:00;;;;;;;4.85;2.97;;;;;;;19.02;44.99;101566.53;5010428;28;20030;-72
2022/09/23 04:41:25;;;;;;;5.15;2.95;;;;;;;19.04;44.80;101559.31;5012411;28;20077;-73
2022/09/23 04:43:52;;;;;;;4.40;2.53;;;;;;;19.06;44.99;101564.47;5012087;28;20091;-74
2022/09/23 04:46:17;;;;;;;5.18;3.13;;;;;;;19.11;44.73;101570.28;5011751;28;20030;-73
2022/09/23 04:48:42;;;;;;;4.85;3.00;;;;;;;19.12;44.86;101574.59;5012510;28;20040;-74
2022/09/23 04:51:13;;;;;;;5.22;2.70;;;;;;;18.84;44.81;101526.47;5011310;28;20038;-74
2022/09/23 04:53:41;;;;;;;6.82;3.05;;;;;;;19.12;44.75;101564.03;5011352;28;20034;-73
2022/09/23 04:56:10;;;;;;;5.93;2.83;;;;;;;19.11;44.85;101552.63;5011575;28;20034;-74
2022/09/23 04:58:36;;;;;;;4.00;2.60;;;;;;;19.10;44.51;101550.94;5011691;28;20045;-73
2022/09/23 05:01:18;;;;;;;4.43;2.90;;;;;;;19.09;44.96;101545.75;5011738;28;20033;-72
2022/09/23 05:03:45;;;;;;;4.63;2.90;;;;;;;19.07;44.71;101539.75;5011424;28;20941;-74
2022/09/23 05:06:12;;;;;;;5.78;3.38;;;;;;;19.09;44.65;101549.28;5018194;28;20080;-75
2022/09/23 05:08:39;;;;;;;5.18;2.80;;;;;;;19.08;44.70;101544.94;5011826;28;20317;-75
2022/09/23 05:11:05;;;;;;;5.90;2.92;;;;;;;19.00;44.40;101540.22;5011719;28;20037;-74
2022/09/23 05:13:31;;;;;;;4.50;2.65;;;;;;;19.02;44.39;101537.47;5011989;28;20037;-73
2022/09/23 05:16:01;;;;;;;4.45;2.85;;;;;;;19.01;44.38;101535.78;5011873;28;20120;-75
2022/09/23 05:18:31;;;;;;;5.50;2.88;;;;;;;19.04;44.63;101540.81;5011345;28;20034;-73
2022/09/23 05:20:56;;;;;;;5.57;2.90;;;;;;;19.06;44.52;101546.00;5011534;28;20037;-74
2022/09/23 05:23:22;;;;;;;6.13;2.90;;;;;;;19.05;44.32;101557.53;5017953;28;20026;-73
2022/09/23 05:25:48;;;;;;;5.05;2.70;;;;;;;19.06;44.47;101559.19;5011548;28;20030;-76
2022/09/23 05:28:17;;;;;;;4.80;2.80;;;;;;;18.91;44.41;101540.88;5018070;28;20098;-73
2022/09/23 05:30:43;;;;;;;5.45;3.20;;;;;;;19.00;44.52;101557.88;5011789;28;20413;-74
2022/09/23 05:33:09;;;;;;;4.80;3.00;;;;;;;19.03;44.52;101560.28;5011035;28;20029;-73
2022/09/23 05:35:34;;;;;;;4.50;2.80;;;;;;;19.01;44.36;101565.69;5011423;28;20044;-76
2022/09/23 05:37:59;;;;;;;4.88;2.80;;;;;;;18.99;44.53;101566.75;5011081;28;20072;-76
2022/09/23 05:40:25;;;;;;;7.05;3.17;;;;;;;19.02;44.52;101571.81;5010464;28;20029;-75
2022/09/23 05:42:50;;;;;;;4.82;2.80;;;;;;;18.93;44.71;101557.50;5018074;28;20037;-74
2022/09/23 05:45:16;;;;;;;4.67;2.63;;;;;;;18.95;44.43;101563.50;5018611;28;20172;-73
2022/09/23 05:47:42;;;;;;;4.80;2.80;;;;;;;19.00;44.52;101573.72;5017935;28;20263;-74
2022/09/23 05:50:08;;;;;;;5.40;3.22;;;;;;;18.93;44.71;101564.53;5018235;28;20080;-73
2022/09/23 05:52:33;;;;;;;7.20;4.57;;;;;;;18.86;45.29;101564.16;5017630;28;20971;-73
2022/09/23 05:55:28;;;;;;;5.13;2.80;;;;;;;18.95;45.24;101575.88;5017298;28;20041;-75
2022/09/23 05:57:53;;;;;;;5.30;3.00;;;;;;;18.95;45.36;101578.50;5017800;28;20049;-74
2022/09/23 06:00:18;;;;;;;5.53;2.80;;;;;;;18.94;45.71;101572.34;5016581;28;20046;-75
2022/09/23 06:02:46;;;;;;;5.32;2.65;;;;;;;18.99;45.84;101582.59;5018044;28;20061;-76
2022/09/23 06:05:12;;;;;;;4.30;2.42;;;;;;;18.94;45.80;101567.06;5017182;28;20128;-75
2022/09/23 06:07:37;;;;;;;6.45;2.72;;;;;;;18.83;45.85;101540.56;5017960;28;20473;-73
2022/09/23 06:10:03;;;;;;;6.18;2.67;;;;;;;18.96;45.98;101562.53;5017137;28;20032;-75
2022/09/23 06:12:28;;;;;;;4.38;2.50;;;;;;;18.95;46.14;101552.09;5017332;28;20389;-75
2022/09/23 06:14:53;;;;;;;5.20;2.77;;;;;;;19.02;46.08;101561.22;5017749;28;20107;-71
2022/09/23 06:17:19;;;;;;;6.07;2.90;;;;;;;19.02;45.96;101562.06;5017405;28;20279;-77
2022/09/23 06:19:44;;;;;;;6.00;3.10;;;;;;;18.99;46.55;101569.38;5018269;28;20273;-79
2022/09/23 06:22:10;;;;;;;8.07;2.80;;;;;;;18.93;46.61;101560.13;5016884;28;20739;-78
2022/09/23 06:24:35;;;;;;;5.22;2.90;;;;;;;18.91;46.51;101558.53;5017234;28;20024;-79
2022/09/23 06:27:01;;;;;;;6.60;2.87;;;;;;;19.00;46.34;101565.78;5017641;28;20033;-73
2022/09/23 06:29:29;;;;;;;5.55;2.53;;;;;;;19.01;46.87;101565.69;5015520;28;20746;-80
2022/09/23 06:31:55;;;;;;;4.80;2.70;;;;;;;19.11;46.12;101555.28;5016899;28;20137;-75
2022/09/23 06:34:20;;;;;;;6.97;2.85;;;;;;;19.11;46.18;101550.00;5016787;28;20113;-76
2022/09/23 06:36:45;;;;;;;6.85;2.80;;;;;;;19.24;46.02;101557.00;5014009;28;20058;-76
2022/09/23 06:39:14;;;;;;;5.35;2.47;;;;;;;19.26;46.14;101549.81;5015769;28;20953;-72
2022/09/23 06:41:40;;;;;;;5.03;2.92;;;;;;;19.35;46.12;101554.41;5014805;28;20022;-69
2022/09/23 06:44:05;;;;;;;4.35;2.38;;;;;;;19.42;45.98;101562.69;5017320;28;20083;-70
2022/09/23 06:46:30;;;;;;;7.07;2.38;;;;;;;19.45;46.07;101562.47;5015089;28;20611;-74
2022/09/23 06:48:56;;;;;;;4.63;2.50;;;;;;;19.42;46.30;101568.81;5014847;28;20048;-78
2022/09/23 06:51:21;;;;;;;7.13;2.90;;;;;;;19.36;46.21;101558.75;5016261;28;20052;-75
2022/09/23 06:53:49;;;;;;;4.82;2.53;;;;;;;19.43;46.51;101564.41;5013220;28;20034;-75
2022/09/23 06:56:16;;;;;;;5.25;3.20;;;;;;;19.47;46.54;101563.19;5012815;28;20029;-75
2022/09/23 06:58:42;;;;;;;6.78;2.53;;;;;;;19.48;46.34;101556.97;5012318;28;20049;-73
2022/09/23 07:01:11;;;;;;;6.30;2.80;;;;;;;19.50;46.34;101547.09;5010585;28;20026;-74
2022/09/23 07:03:37;;;;;;;5.40;2.70;;;;;;;19.56;46.20;101559.84;5013420;28;20083;-72
2022/09/23 07:06:05;;;;;;;6.85;2.50;;;;;;;19.59;46.17;101556.97;5020884;28;20025;-76
2022/09/23 07:08:32;;;;;;;6.28;2.65;;;;;;;19.62;46.01;101561.19;5013236;28;20030;-75
2022/09/23 07:11:00;;;;;;;5.95;2.72;;;;;;;19.59;46.11;101549.06;5014319;28;20374;-70
2022/09/23 07:13:26;;;;;;;7.30;2.90;;;;;;;19.65;46.03;101561.81;5013589;28;20037;-75
2022/09/23 07:16:00;;;;;;;8.95;2.50;;;;;;;19.64;46.20;101551.34;5014349;28;20041;-74
2022/09/23 07:18:27;;;;;;;4.55;2.55;;;;;;;19.63;46.05;101547.00;5014136;28;20036;-71
2022/09/23 07:20:57;;;;;;;6.05;2.72;;;;;;;19.67;46.20;101559.03;5014068;28;20025;-70
2022/09/23 07:23:23;;;;;;;6.63;2.65;;;;;;;19.64;46.22;101552.19;5012360;28;20089;-74
2022/09/23 07:25:50;;;;;;;5.32;2.55;;;;;;;19.66;46.07;101549.41;5013247;28;20061;-75
2022/09/23 07:28:17;;;;;;;4.40;2.40;;;;;;;19.62;46.02;101542.69;5013321;28;20068;-70
2022/09/23 07:30:43;;;;;;;6.60;2.65;;;;;;;19.69;45.87;101557.97;5014303;28;20091;-74
2022/09/23 07:33:09;;;;;;;5.78;2.90;;;;;;;19.55;45.99;101542.28;5012887;28;20038;-72
2022/09/23 07:35:38;;;;;;;5.50;2.80;;;;;;;19.61;45.99;101544.47;5013936;28;20036;-71
2022/09/23 07:38:03;;;;;;;5.55;2.60;;;;;;;19.58;46.28;101547.34;5013601;28;20026;-72
2022/09/23 07:40:29;;;;;;;4.75;2.30;;;;;;;19.66;46.26;101557.34;5013054;28;20107;-70
2022/09/23 07:42:54;;;;;;;4.65;2.45;;;;;;;19.60;46.14;101548.09;5013641;28;20398;-70
2022/09/23 07:45:20;;;;;;;6.88;2.28;;;;;;;19.59;46.25;101549.06;5010668;28;20100;-80
2022/09/23 07:47:45;;;;;;;4.90;2.38;;;;;;;19.56;46.43;101552.75;5018852;28;20040;-76
2022/09/23 07:50:11;;;;;;;5.83;2.60;;;;;;;19.49;46.74;101548.06;5012653;28;20036;-74
2022/09/23 07:52:37;;;;;;;6.85;2.65;;;;;;;19.47;47.07;101555.25;5012401;28;20346;-74
2022/09/23 07:55:06;;;;;;;5.13;2.50;;;;;;;19.49;46.86;101561.28;5011623;28;20116;-74
2022/09/23 07:57:32;;;;;;;4.90;2.50;;;;;;;19.49;46.82;101556.00;5011567;28;20052;-72
2022/09/23 07:59:59;;;;;;;8.20;2.70;;;;;;;19.48;47.12;101549.84;5012169;28;20466;-74
2022/09/23 08:02:24;;;;;;;7.90;2.50;;;;;;;19.52;47.02;101540.75;5012116;28;20040;-76
2022/09/23 08:04:49;;;;;;;6.93;2.30;;;;;;;19.63;46.82;101550.50;5012163;28;20934;-74
2022/09/23 08:07:15;;;;;;;7.60;2.60;;;;;;;19.70;46.60;101558.81;5012378;28;20259;-72
2022/09/23 08:09:42;;;;;;;7.47;2.83;;;;;;;19.80;46.53;101562.44;5011375;28;20844;-73
2022/09/23 08:12:14;;;;;;;6.78;2.78;;;;;;;19.87;46.51;101563.69;5012115;28;20048;-77
2022/09/23 08:14:40;;;;;;;6.40;3.13;;;;;;;19.88;46.21;101560.03;5012373;28;20088;-75
2022/09/23 08:17:06;;;;;;;5.63;2.47;;;;;;;19.93;46.24;101563.19;5012464;28;20446;-73
2022/09/23 08:19:31;;;;;;;6.95;2.42;;;;;;;19.96;46.28;101556.81;5011845;28;20365;-75
2022/09/23 08:21:56;;;;;;;6.65;2.25;;;;;;;20.01;46.13;101556.47;5011999;28;20454;-77
2022/09/23 08:24:23;;;;;;;5.25;2.38;;;;;;;20.07;45.99;101564.75;5011382;28;20527;-78
2022/09/23 08:26:51;;;;;;;4.85;2.40;;;;;;;20.11;45.85;101568.84;5012045;28;20572;-76
2022/09/23 08:29:18;;;;;;;5.50;2.63;;;;;;;20.16;45.80;101572.97;5011880;28;20037;-78
2022/09/23 08:31:44;;;;;;;5.40;2.55;;;;;;;20.11;45.53;101554.78;5011638;28;20033;-73
2022/09/23 08:34:10;;;;;;;10.43;2.80;;;;;;;20.09;45.81;101554.91;5011659;28;20096;-73
2022/09/23 08:36:35;;;;;;;6.20;2.92;;;;;;;20.06;45.63;101557.78;5011571;28;20037;-75
2022/09/23 08:39:01;;;;;;;5.85;2.33;;;;;;;20.09;45.66;101556.69;5010968;28;20029;-75
2022/09/23 08:41:45;;;;;;;5.03;2.35;;;;;;;20.18;45.72;101569.22;5011405;28;20049;-76
2022/09/23 08:44:19;;;;;;;9.82;2.60;;;;;;;20.22;45.59;101567.16;5011426;28;21273;-78
2022/09/23 08:47:10;;;;;;;;;;;;;;;20.24;45.42;101576.66;5012434;28;20041;-77
2022/09/23 08:49:59;;;;;;;5.28;2.30;;;;;;;20.27;45.38;101565.84;4991893;28;19951;-79
2022/09/23 08:52:33;;;;;;;6.32;2.58;;;;;;;20.29;45.34;101566.56;5011406;28;20036;-83
2022/09/23 08:55:00;;;;;;;6.93;2.17;;;;;;;20.28;45.50;101567.53;5012195;28;20042;-82
2022/09/23 08:58:07;;;;;;;9.05;2.35;;;;;;;20.29;45.55;101569.19;5013786;28;20041;-84
2022/09/23 09:00:45;;;;;;;9.85;2.50;;;;;;;20.24;45.77;101566.06;5011161;28;20393;-75
2022/09/23 09:03:35;;;;;;;5.03;2.13;;;;;;;20.20;45.66;101562.00;5011587;28;20033;-76
2022/09/23 09:06:02;;;;;;;6.40;2.33;;;;;;;20.13;45.92;101554.66;5011134;28;20067;-76
2022/09/23 09:08:33;;;;;;;5.88;2.35;;;;;;;20.12;45.85;101548.50;5011132;28;20148;-80
2022/09/23 09:10:58;;;;;;;5.72;2.17;;;;;;;20.15;45.80;101550.91;5011369;28;20433;-73
2022/09/23 09:13:30;;;;;;;5.35;2.13;;;;;;;20.21;45.77;101553.09;5010536;28;20029;-78
2022/09/23 09:16:17;;;;;;;6.82;2.38;;;;;;;20.21;45.75;101552.25;5009879;28;20030;-79
2022/09/23 09:18:54;;;;;;;6.82;2.50;;;;;;;20.07;45.93;101533.00;5010423;28;20025;-76
2022/09/23 09:21:37;;;;;;;4.72;2.20;;;;;;;20.16;45.96;101549.97;5010087;28;20073;-78
2022/09/23 09:24:15;;;;;;;6.00;2.10;;;;;;;20.13;45.71;101536.97;5011410;28;20030;-79
2022/09/23 09:26:40;;;;;;;6.03;2.10;;;;;;;20.22;45.99;101549.50;5010065;28;20120;-82
2022/09/23 09:29:13;;;;;;;6.55;2.17;;;;;;;20.21;45.80;101547.78;5017633;28;20091;-77
2022/09/23 09:31:41;;;;;;;6.18;2.22;;;;;;;20.22;46.11;101543.34;5010079;28;20100;-74
2022/09/23 09:34:17;;;;;;;5.10;2.17;;;;;;;20.17;46.02;101535.78;5010597;28;20018;-77
2022/09/23 09:36:52;;;;;;;4.95;2.00;;;;;;;20.24;46.32;101544.06;5010723;28;20040;-76
2022/09/23 09:39:18;;;;;;;4.20;2.13;;;;;;;20.17;46.17;101534.91;5010380;28;20033;-76
2022/09/23 09:41:50;;;;;;;8.52;2.05;;;;;;;20.19;46.35;101533.84;5010224;28;20037;-76
2022/09/23 09:44:49;;;;;;;4.55;2.10;;;;;;;20.21;46.13;101542.50;5009464;28;20125;-77
2022/09/23 09:47:48;;;;;;;6.10;2.00;;;;;;;20.20;46.29;101542.63;5008265;28;20037;-75
2022/09/23 09:50:20;;;;;;;4.40;2.10;;;;;;;20.17;46.30;101532.28;5004575;28;20060;-74
2022/09/23 09:52:47;;;;;;;7.40;2.38;;;;;;;20.24;46.22;101539.63;5010814;28;20071;-79
2022/09/23 09:55:13;;;;;;;4.97;2.03;;;;;;;20.28;46.06;101534.91;5010120;28;20029;-81
2022/09/23 09:57:43;;;;;;;4.70;1.90;;;;;;;20.31;46.17;101529.38;5009907;28;20617;-74
2022/09/23 10:00:18;;;;;;;6.68;1.90;;;;;;;20.33;46.10;101532.75;5010158;28;20061;-76
2022/09/23 10:02:44;;;;;;;6.70;2.20;;;;;;;20.37;46.13;101526.25;5010625;28;20091;-74
2022/09/23 10:05:29;;;;;;;6.32;2.10;;;;;;;20.38;46.03;101521.81;5010520;28;20041;-80
2022/09/23 10:07:54;;;;;;;5.10;1.88;;;;;;;20.44;45.65;101527.44;5015716;28;20034;-75
2022/09/23 10:10:23;;;;;;;4.93;1.85;;;;;;;20.41;45.96;101517.09;5009729;28;20076;-80
2022/09/23 10:12:51;;;;;;;4.35;1.98;;;;;;;20.45;46.07;101515.03;5009832;28;20033;-77
2022/09/23 10:15:32;;;;;;;6.93;2.00;;;;;;;20.54;45.88;101516.94;5009308;28;20077;-80
2022/09/23 10:18:00;;;;;;;5.90;2.00;;;;;;;20.55;45.70;101508.00;5011124;28;20106;-78
2022/09/23 10:20:33;;;;;;;5.90;1.90;;;;;;;20.61;45.74;101515.47;5008560;28;20025;-78
2022/09/23 10:23:05;;;;;;;6.75;1.65;;;;;;;20.67;45.53;101518.63;5008374;28;20026;-77
2022/09/23 10:25:33;;;;;;;4.35;1.77;;;;;;;20.67;45.65;101518.63;5010196;28;20470;-74
2022/09/23 10:28:36;;;;;;;5.22;1.90;;;;;;;20.66;45.53;101515.13;5010657;28;20042;-75
2022/09/23 10:31:04;;;;;;;4.13;1.75;;;;;;;20.61;45.63;101517.28;5014579;28;20073;-77
2022/09/23 10:33:30;;;;;;;5.28;1.80;;;;;;;20.56;45.65;101511.53;5013488;28;20038;-76
2022/09/23 10:35:56;;;;;;;6.82;2.30;;;;;;;20.46;45.80;101506.97;5014092;28;20030;-75
2022/09/23 10:38:22;;;;;;;7.40;1.75;;;;;;;20.46;45.69;101504.31;5013385;28;20484;-74
2022/09/23 10:46:39;;;;;;;5.55;1.85;;;;;;;20.48;46.15;101518.28;5012372;28;20053;-69
2022/09/23 10:49:23;;;;;;;5.05;2.03;;;;;;;20.46;46.09;101512.25;5012941;28;20041;-79
2022/09/23 10:52:17;;;;;;;4.80;2.08;;;;;;;20.58;45.95;101521.00;5012672;28;20040;-75
2022/09/23 10:54:54;;;;;;;4.07;1.77;;;;;;;20.62;45.75;101521.63;5013559;28;20056;-73
2022/09/23 10:57:40;;;;;;;4.57;1.80;;;;;;;20.61;45.75;101515.47;5013455;28;20041;-74
2022/09/23 11:00:22;;;;;;;5.82;1.90;;;;;;;20.58;45.97;101510.41;5012951;28;20038;-74
2022/09/23 11:03:25;;;;;;;7.32;2.00;;;;;;;20.56;45.90;101509.72;5013368;28;20441;-74
2022/09/23 11:06:11;;;;;;;6.45;2.15;;;;;;;20.51;45.59;101506.59;5012617;28;20030;-77
2022/09/23 11:09:01;;;;;;;10.05;2.20;;;;;;;20.46;45.82;101501.69;5012297;28;20124;-77
2022/09/23 11:11:44;;;;;;;4.78;2.20;;;;;;;20.50;45.83;101506.72;5012183;28;20083;-82
2022/09/23 11:14:18;;;;;;;6.28;2.15;;;;;;;20.54;46.02;101511.66;5013040;28;20802;-70
2022/09/23 11:16:59;;;;;;;5.82;2.10;;;;;;;20.56;45.80;101506.22;5011958;28;20056;-68
2022/09/23 11:19:59;;;;;;;5.78;2.28;;;;;;;20.57;45.93;101499.94;5011458;28;20556;-67
2022/09/23 11:22:47;;;;;;;5.30;2.10;;;;;;;20.56;45.59;101503.59;5014324;28;20037;-68
2022/09/23 11:25:16;;;;;;;6.65;1.90;;;;;;;20.55;45.61;101502.72;5014140;28;20030;-69
2022/09/23 11:28:00;;;;;;;5.10;2.10;;;;;;;20.53;45.75;101496.72;5012974;28;20054;-68
2022/09/23 11:31:05;;;;;;;5.20;1.80;;;;;;;20.52;45.67;101497.69;5012754;28;20057;-68
2022/09/23 11:34:06;;;;;;;4.00;1.90;;;;;;;20.48;45.85;101497.09;5012349;28;20030;-68
2022/09/23 11:36:37;;;;;;;5.95;2.33;;;;;;;20.42;45.69;101486.16;5013075;28;20029;-69
2022/09/23 11:39:16;;;;;;;4.22;1.77;;;;;;;20.44;45.80;101493.03;5012859;28;20080;-68
2022/09/23 11:41:43;;;;;;;5.45;2.08;;;;;;;20.39;45.42;101489.06;5013319;28;20042;-68
2022/09/23 11:44:32;;;;;;;6.03;2.20;;;;;;;20.42;45.69;101484.34;5013717;28;20030;-70
2022/09/23 11:47:07;;;;;;;5.55;1.95;;;;;;;20.35;45.64;101469.94;5013235;28;20036;-68
2022/09/23 11:49:41;;;;;;;5.13;2.03;;;;;;;20.34;45.91;101476.19;5013070;28;20056;-71
2022/09/23 11:52:19;;;;;;;3.90;1.90;;;;;;;20.35;45.59;101474.41;5013440;28;20056;-69